Time;durP1;ratioP1;P1;durP2;ratioP2;P2;SDS_P1;SDS_P2;PMS_P1;PMS_P2;Temp;Humidity;BMP_temperature;BMP_pressure;BME280_temperature;BME280_humidity;BME280_pressure;Samples;Min_cycle;Max_cycle;Signal;HPM_P1;HPM_P2
2022/03/16 00:00:08;;;;;;;58.53;28.63;;;6.60;99.90;;;;;;4855701;29;20417;-70
2022/03/16 00:02:34;;;;;;;58.60;28.77;;;;;;;;;;4843271;29;20053;-70
2022/03/16 00:05:00;;;;;;;55.67;29.00;;;;;;;;;;4855896;29;20041;-70
2022/03/16 00:07:26;;;;;;;62.75;30.42;;;;;;;;;;4869013;29;20037;-70
2022/03/16 00:09:52;;;;;;;53.08;29.48;;;;;;;;;;4868751;29;20523;-70
2022/03/16 00:12:19;;;;;;;62.75;30.77;;;;;;;;;;4865731;29;20053;-70
2022/03/16 00:14:45;;;;;;;61.78;31.27;;;;;;;;;;4852662;29;20105;-70
2022/03/16 00:17:12;;;;;;;63.20;32.97;;;;;;;;;;4868966;29;20040;-70
2022/03/16 00:19:39;;;;;;;59.85;30.05;;;;;;;;;;4868322;29;20045;-70
2022/03/16 00:22:06;;;;;;;57.97;30.77;;;;;;;;;;4868597;29;20056;-70
2022/03/16 00:24:32;;;;;;;60.65;29.38;;;;;;;;;;4868823;29;20049;-70
2022/03/16 00:26:58;;;;;;;63.00;32.65;;;;;;;;;;4864982;29;20041;-70
2022/03/16 00:29:24;;;;;;;59.50;31.27;;;;;;;;;;4850238;29;20049;-70
2022/03/16 00:31:50;;;;;;;59.13;30.73;;;;;;;;;;4866551;29;20051;-70
2022/03/16 00:34:16;;;;;;;59.20;29.58;;;;;;;;;;4868708;29;20045;-70
2022/03/16 00:36:43;;;;;;;56.42;31.20;;;;;;;;;;4868345;29;20043;-70
2022/03/16 00:39:09;;;;;;;62.33;30.50;;;;;;;;;;4868655;29;20041;-70
2022/03/16 00:41:36;;;;;;;60.47;29.98;;;;;;;;;;4849820;29;20041;-70
2022/03/16 00:44:04;;;;;;;66.38;33.00;;;6.40;99.90;;;;;;4850302;29;20464;-70
2022/03/16 00:46:30;;;;;;;61.40;30.83;;;;;;;;;;4850545;29;20109;-70
2022/03/16 00:48:56;;;;;;;60.85;30.48;;;;;;;;;;4853225;29;20045;-70
2022/03/16 00:51:22;;;;;;;64.93;32.05;;;;;;;;;;4868051;29;20043;-70
2022/03/16 00:53:48;;;;;;;57.83;30.60;;;;;;;;;;4868569;29;20048;-70
2022/03/16 00:56:14;;;;;;;58.45;31.77;;;;;;;;;;4868612;29;20041;-70
2022/03/16 00:58:45;;;;;;;61.08;32.10;;;7.20;99.90;;;;;;4853123;29;20466;-70
2022/03/16 01:01:11;;;;;;;61.63;31.20;;;;;;;;;;4868410;29;20045;-70
2022/03/16 01:03:41;;;;;;;60.17;32.45;;;;;;;;;;4868155;29;20116;-70
2022/03/16 01:06:15;;;;;;;65.40;32.20;;;;;;;;;;4853067;29;20435;-70
2022/03/16 01:08:44;;;;;;;57.58;31.10;;;6.20;99.90;;;;;;4868616;29;20442;-70
2022/03/16 01:11:14;;;;;;;67.60;32.40;;;5.20;99.90;;;;;;4868266;29;20127;-70
2022/03/16 01:13:41;;;;;;;61.53;32.00;;;6.30;99.90;;;;;;4866249;29;20045;-70
2022/03/16 01:16:07;;;;;;;59.20;31.60;;;;;;;;;;4865192;29;20041;-70
2022/03/16 01:18:33;;;;;;;60.35;32.80;;;;;;;;;;4865353;29;20082;-70
2022/03/16 01:21:00;;;;;;;68.47;33.85;;;;;;;;;;4859817;29;20052;-70
2022/03/16 01:23:26;;;;;;;72.32;32.50;;;;;;;;;;4850871;29;20501;-70
2022/03/16 01:25:52;;;;;;;59.25;31.90;;;;;;;;;;4849542;29;20033;-71
2022/03/16 01:28:18;;;;;;;61.53;32.50;;;;;;;;;;4865358;29;20049;-70
2022/03/16 01:30:44;;;;;;;60.15;29.13;;;;;;;;;;4847648;29;20049;-70
2022/03/16 01:33:10;;;;;;;52.00;28.15;;;;;;;;;;4865227;29;20045;-71
2022/03/16 01:35:36;;;;;;;51.20;28.35;;;;;;;;;;4865246;29;20052;-70
2022/03/16 01:38:02;;;;;;;42.78;22.63;;;;;;;;;;4846059;29;20052;-70
2022/03/16 01:40:28;;;;;;;33.58;20.05;;;;;;;;;;4832895;29;20124;-70
2022/03/16 01:42:54;;;;;;;31.38;19.88;;;;;;;;;;4864985;29;20045;-70
2022/03/16 01:45:20;;;;;;;39.80;19.65;;;;;;;;;;4865108;29;20148;-70
2022/03/16 01:47:47;;;;;;;31.27;18.98;;;;;;;;;;4864834;29;20040;-70
2022/03/16 01:50:13;;;;;;;37.42;20.52;;;;;;;;;;4849720;29;20044;-70
2022/03/16 01:52:39;;;;;;;40.45;20.50;;;;;;;;;;4861327;29;20506;-71
2022/03/16 01:55:06;;;;;;;36.83;21.27;;;6.00;99.90;;;;;;4846449;29;20037;-70
2022/03/16 01:57:34;;;;;;;39.13;21.00;;;5.50;99.90;;;;;;4861121;29;20049;-70
2022/03/16 02:00:00;;;;;;;44.28;23.52;;;6.20;99.90;;;;;;4849029;29;20623;-70
2022/03/16 02:02:26;;;;;;;41.65;23.15;;;;;;;;;;4864412;29;20080;-70
2022/03/16 02:04:53;;;;;;;39.72;22.50;;;;;;;;;;4864779;29;20050;-70
2022/03/16 02:07:19;;;;;;;41.45;23.35;;;5.10;99.90;;;;;;4864302;29;20413;-70
2022/03/16 02:09:45;;;;;;;41.20;24.83;;;;;;;;;;4864412;29;20053;-70
2022/03/16 02:12:14;;;;;;;40.45;23.02;;;;;;;;;;4864580;29;20049;-70
2022/03/16 02:14:40;;;;;;;42.50;24.13;;;;;;;;;;4864013;29;20540;-70
2022/03/16 02:17:06;;;;;;;41.15;23.52;;;;;;;;;;4864170;29;20049;-70
2022/03/16 02:19:32;;;;;;;42.00;23.75;;;;;;;;;;4864325;29;20406;-70
2022/03/16 02:22:03;;;;;;;42.10;22.42;;;5.20;99.90;;;;;;4846494;29;20045;-70
2022/03/16 02:24:29;;;;;;;41.30;24.33;;;;;;;;;;4864167;29;20045;-70
2022/03/16 02:26:58;;;;;;;40.13;23.40;;;5.10;99.90;;;;;;4857219;29;20041;-70
2022/03/16 02:29:24;;;;;;;45.97;25.38;;;5.70;99.90;;;;;;4860576;29;20045;-70
2022/03/16 02:31:50;;;;;;;43.42;23.63;;;5.20;99.90;;;;;;4859851;29;20512;-70
2022/03/16 02:34:16;;;;;;;40.50;23.30;;;;;;;;;;4854761;29;20104;-70
2022/03/16 02:36:43;;;;;;;40.92;22.27;;;;;;;;;;4842177;29;20045;-70
2022/03/16 02:39:09;;;;;;;45.67;25.48;;;;;;;;;;4845634;29;20418;-70
2022/03/16 02:41:35;;;;;;;44.83;24.75;;;;;;;;;;4842852;29;20045;-70
2022/03/16 02:44:02;;;;;;;43.35;25.75;;;;;;;;;;4863528;29;20041;-70
2022/03/16 02:46:28;;;;;;;46.72;25.92;;;;;;;;;;4863362;29;20052;-70
2022/03/16 02:48:54;;;;;;;46.10;27.30;;;;;;;;;;4863910;29;20052;-70
2022/03/16 02:51:20;;;;;;;47.72;26.70;;;;;;;;;;4853334;29;20053;-70
2022/03/16 02:53:46;;;;;;;47.65;26.85;;;;;;;;;;4862932;29;20045;-70
2022/03/16 02:56:12;;;;;;;50.25;27.92;;;;;;;;;;4863347;29;20048;-70
2022/03/16 02:58:38;;;;;;;53.50;27.70;;;;;;;;;;4863229;29;20061;-70
2022/03/16 03:01:04;;;;;;;52.08;29.13;;;5.10;99.90;;;;;;4848254;29;20049;-70
2022/03/16 03:03:30;;;;;;;51.63;28.30;;;;;;;;;;4860626;29;20105;-70
2022/03/16 03:05:56;;;;;;;53.47;28.13;;;;;;;;;;4849186;29;20040;-70
2022/03/16 03:08:22;;;;;;;54.47;30.08;;;;;;;;;;4863427;29;20497;-70
2022/03/16 03:10:49;;;;;;;61.95;30.90;;;;;;;;;;4844683;29;20046;-70
2022/03/16 03:13:16;;;;;;;59.20;29.55;;;;;;;;;;4855925;29;20049;-70
2022/03/16 03:15:42;;;;;;;55.58;29.50;;;;;;;;;;4863169;29;20084;-70
2022/03/16 03:18:08;;;;;;;56.08;29.70;;;;;;;;;;4860159;29;20413;-70
2022/03/16 03:20:34;;;;;;;56.22;29.25;;;;;;;;;;4850421;29;20045;-70
2022/03/16 03:23:00;;;;;;;57.22;28.92;;;;;;;;;;4854957;29;20038;-70
2022/03/16 03:25:27;;;;;;;52.60;29.95;;;;;;;;;;4844890;29;20432;-70
2022/03/16 03:27:53;;;;;;;56.22;29.58;;;;;;;;;;4862604;29;20045;-70
2022/03/16 03:30:19;;;;;;;55.90;29.83;;;;;;;;;;4862956;29;20073;-70
2022/03/16 03:32:45;;;;;;;53.80;29.55;;;;;;;;;;4862954;29;20037;-70
2022/03/16 03:35:11;;;;;;;58.35;30.90;;;;;;;;;;4863075;29;20045;-70
2022/03/16 03:37:37;;;;;;;55.65;30.10;;;;;;;;;;4859027;29;20482;-70
2022/03/16 03:40:05;;;;;;;52.08;26.95;;;4.80;99.90;;;;;;4845778;29;20046;-71
2022/03/16 03:42:31;;;;;;;55.45;28.83;;;;;;;;;;4856997;29;20049;-70
2022/03/16 03:44:57;;;;;;;53.67;29.10;;;;;;;;;;4859241;29;20042;-70
2022/03/16 03:47:23;;;;;;;57.08;31.50;;;;;;;;;;4842178;29;20048;-70
2022/03/16 03:49:49;;;;;;;52.65;30.13;;;;;;;;;;4863322;29;20048;-70
2022/03/16 03:52:15;;;;;;;58.67;29.90;;;;;;;;;;4857253;29;20048;-71
2022/03/16 03:54:41;;;;;;;58.30;30.20;;;;;;;;;;4858984;29;20494;-70
2022/03/16 03:57:08;;;;;;;52.22;29.45;;;;;;;;;;4855031;29;20053;-70
2022/03/16 03:59:34;;;;;;;55.88;31.65;;;;;;;;;;4862084;29;20387;-70
2022/03/16 04:02:00;;;;;;;58.92;30.88;;;;;;;;;;4859579;29;20387;-71
2022/03/16 04:04:26;;;;;;;60.28;31.55;;;;;;;;;;4859185;29;20044;-71
2022/03/16 04:06:52;;;;;;;57.75;29.60;;;;;;;;;;4859495;29;20121;-70
2022/03/16 04:09:19;;;;;;;53.50;29.95;;;;;;;;;;4853444;29;20049;-71
2022/03/16 04:11:45;;;;;;;51.63;28.60;;;;;;;;;;4845856;29;20049;-71
2022/03/16 04:14:11;;;;;;;55.65;30.15;;;;;;;;;;4851709;29;20050;-71
2022/03/16 04:16:37;;;;;;;56.15;29.25;;;;;;;;;;4850383;29;20053;-71
2022/03/16 04:19:03;;;;;;;53.90;28.30;;;;;;;;;;4843798;29;20057;-70
2022/03/16 04:21:29;;;;;;;49.25;26.98;;;;;;;;;;4844590;29;20466;-70
2022/03/16 04:23:55;;;;;;;50.50;28.63;;;;;;;;;;4861737;29;20045;-71
2022/03/16 04:26:21;;;;;;;55.53;29.48;;;;;;;;;;4859745;29;20037;-71
2022/03/16 04:28:47;;;;;;;56.15;29.92;;;;;;;;;;4852503;29;20048;-71
2022/03/16 04:31:14;;;;;;;58.10;30.52;;;;;;;;;;4862328;29;20104;-71
2022/03/16 04:33:40;;;;;;;54.78;29.45;;;;;;;;;;4846614;29;20506;-71
2022/03/16 04:36:06;;;;;;;51.17;28.63;;;;;;;;;;4862337;29;20528;-71
2022/03/16 04:38:32;;;;;;;53.53;26.85;;;;;;;;;;4861960;29;20209;-71
2022/03/16 04:41:03;;;;;;;45.10;26.60;;;4.50;99.90;;;;;;4862675;29;20048;-71
2022/03/16 04:43:29;;;;;;;48.90;25.95;;;;;;;;;;4835121;29;20038;-71
2022/03/16 04:45:55;;;;;;;46.83;25.42;;;;;;;;;;4862207;29;20048;-71
2022/03/16 04:48:21;;;;;;;46.13;25.17;;;;;;;;;;4862061;29;20106;-70
2022/03/16 04:50:48;;;;;;;43.30;25.52;;;;;;;;;;4865525;29;20045;-71
2022/03/16 04:53:14;;;;;;;39.53;23.65;;;;;;;;;;4865923;29;20049;-72
2022/03/16 04:55:40;;;;;;;42.33;26.08;;;;;;;;;;4865624;29;20049;-71
2022/03/16 04:58:07;;;;;;;47.22;25.13;;;4.60;99.90;;;;;;4865358;29;20109;-71
2022/03/16 05:00:34;;;;;;;44.35;25.23;;;;;;;;;;4865377;29;20041;-71
2022/03/16 05:03:00;;;;;;;38.05;24.10;;;;;;;;;;4847625;29;20053;-70
2022/03/16 05:05:26;;;;;;;42.92;25.17;;;;;;;;;;4862414;29;20045;-71
2022/03/16 05:07:52;;;;;;;41.72;24.23;;;4.70;99.90;;;;;;4862668;29;20041;-71
2022/03/16 05:10:18;;;;;;;44.88;25.95;;;;;;;;;;4860594;29;20047;-71
2022/03/16 05:12:44;;;;;;;42.10;25.05;;;4.70;99.90;;;;;;4864273;29;20041;-71
2022/03/16 05:15:13;;;;;;;41.63;25.08;;;;;;;;;;4875903;29;20513;-71
2022/03/16 05:17:40;;;;;;;47.47;27.00;;;;;;;;;;4857937;29;20110;-71
2022/03/16 05:20:07;;;;;;;49.35;28.17;;;4.50;99.90;;;;;;4855128;29;20169;-71
2022/03/16 05:22:40;;;;;;;44.05;26.63;;;;;;;;;;4863921;29;20049;-71
2022/03/16 05:25:06;;;;;;;49.47;28.02;;;;;;;;;;4863973;29;20049;-71
2022/03/16 05:27:32;;;;;;;52.80;29.02;;;;;;;;;;4864135;29;20096;-71
2022/03/16 05:29:58;;;;;;;52.88;30.05;;;;;;;;;;4864045;29;20050;-71
2022/03/16 05:32:25;;;;;;;51.92;29.02;;;;;;;;;;4852185;29;20077;-71
2022/03/16 05:34:51;;;;;;;51.00;29.27;;;;;;;;;;4864119;29;20128;-71
2022/03/16 05:37:17;;;;;;;55.60;31.25;;;;;;;;;;4853928;29;20037;-70
2022/03/16 05:39:43;;;;;;;60.25;28.83;;;;;;;;;;4863520;29;20505;-71
2022/03/16 05:42:12;;;;;;;54.50;30.63;;;;;;;;;;4877547;29;20073;-72
2022/03/16 05:44:38;;;;;;;54.72;30.95;;;;;;;;;;4835973;29;20045;-71
2022/03/16 05:47:04;;;;;;;50.47;30.17;;;;;;;;;;4863697;29;20049;-71
2022/03/16 05:49:30;;;;;;;55.00;30.10;;;;;;;;;;4860221;29;20411;-71
2022/03/16 05:51:56;;;;;;;60.15;30.75;;;;;;;;;;4863705;29;20120;-75
2022/03/16 05:54:22;;;;;;;54.20;28.45;;;;;;;;;;4863361;29;20041;-71
2022/03/16 05:56:48;;;;;;;53.10;29.55;;;;;;;;;;4859962;29;20052;-71
2022/03/16 05:59:14;;;;;;;55.67;31.58;;;;;;;;;;4863301;29;20056;-71
2022/03/16 06:01:40;;;;;;;55.13;31.33;;;;;;;;;;4863087;29;20041;-72
2022/03/16 06:04:06;;;;;;;57.92;32.03;;;;;;;;;;4863444;29;20382;-71
2022/03/16 06:06:33;;;;;;;52.17;29.83;;;;;;;;;;4861686;29;20077;-71
2022/03/16 06:08:59;;;;;;;50.83;28.42;;;;;;;;;;4863094;29;20051;-71
2022/03/16 06:11:25;;;;;;;57.70;31.42;;;;;;;;;;4863335;29;20109;-72
2022/03/16 06:13:51;;;;;;;60.25;30.33;;;;;;;;;;4847805;29;20051;-72
2022/03/16 06:16:17;;;;;;;56.80;30.35;;;;;;;;;;4862664;29;20049;-71
2022/03/16 06:18:43;;;;;;;57.75;31.67;;;;;;;;;;4862837;29;20557;-71
2022/03/16 06:21:09;;;;;;;53.85;30.50;;;;;;;;;;4855303;29;20041;-71
2022/03/16 06:23:36;;;;;;;60.38;31.95;;;;;;;;;;4862481;29;20037;-71
2022/03/16 06:26:05;;;;;;;57.30;31.60;;;;;;;;;;4862918;29;20120;-72
2022/03/16 06:28:31;;;;;;;55.83;29.92;;;;;;;;;;4855098;29;20041;-71
2022/03/16 06:30:57;;;;;;;56.70;32.15;;;;;;;;;;4862644;29;20053;-72
2022/03/16 06:33:23;;;;;;;60.40;32.65;;;;;;;;;;4838919;29;20386;-72
2022/03/16 06:35:49;;;;;;;54.80;31.35;;;;;;;;;;4846776;29;20077;-71
2022/03/16 06:38:15;;;;;;;59.30;32.97;;;;;;;;;;4847526;29;20041;-71
2022/03/16 06:40:42;;;;;;;69.55;33.85;;;;;;;;;;4862788;29;20037;-71
2022/03/16 06:43:08;;;;;;;65.90;34.42;;;;;;;;;;4858227;29;20510;-71
2022/03/16 06:45:34;;;;;;;61.00;32.60;;;;;;;;;;4851875;29;20102;-71
2022/03/16 06:48:01;;;;;;;66.80;33.03;;;5.10;99.90;;;;;;4862483;29;20041;-71
2022/03/16 06:50:28;;;;;;;58.20;32.58;;;;;;;;;;4862305;29;20045;-71
2022/03/16 06:52:55;;;;;;;60.47;32.33;;;4.90;99.90;;;;;;4861120;29;20120;-71
2022/03/16 06:55:21;;;;;;;56.20;31.45;;;;;;;;;;4862258;29;20029;-71
2022/03/16 06:57:48;;;;;;;59.63;32.75;;;;;;;;;;4861938;29;20045;-71
2022/03/16 07:00:14;;;;;;;56.10;31.98;;;;;;;;;;4862475;29;20049;-71
2022/03/16 07:02:58;;;;;;;60.42;32.80;;;5.20;99.90;;;;;;4862728;29;20045;-71
2022/03/16 07:05:33;;;;;;;59.75;34.05;;;5.10;99.90;;;;;;4860944;29;20045;-72
2022/03/16 07:08:02;;;;;;;59.90;32.85;;;5.20;99.90;;;;;;4860403;29;20409;-71
2022/03/16 07:10:28;;;;;;;61.78;33.28;;;;;;;;;;4837478;29;20521;-72
2022/03/16 07:12:54;;;;;;;60.20;36.15;;;;;;;;;;4858923;29;20048;-72
2022/03/16 07:15:21;;;;;;;65.20;35.05;;;4.80;99.90;;;;;;4860002;29;20557;-72
2022/03/16 07:17:47;;;;;;;60.65;34.88;;;;;;;;;;4850089;29;20042;-72
2022/03/16 07:20:13;;;;;;;61.03;32.85;;;;;;;;;;4848033;29;21532;-72
2022/03/16 07:22:39;;;;;;;65.57;33.92;;;;;;;;;;4860358;29;20049;-72
2022/03/16 07:25:09;;;;;;;62.08;33.28;;;5.50;99.90;;;;;;4857301;29;20490;-72
2022/03/16 07:27:44;;;;;;;58.40;33.42;;;;;;;;;;4862406;29;20088;-72
2022/03/16 07:30:11;;;;;;;56.78;32.70;;;;;;;;;;4850332;29;20048;-72
2022/03/16 07:32:40;;;;;;;58.40;33.45;;;5.70;99.90;;;;;;4878123;29;20080;-72
2022/03/16 07:35:09;;;;;;;56.38;32.80;;;6.10;99.90;;;;;;4878647;29;20037;-72
2022/03/16 07:37:35;;;;;;;54.97;33.03;;;;;;;;;;4859773;29;20053;-72
2022/03/16 07:40:03;;;;;;;59.28;34.17;;;;;;;;;;4845429;29;20038;-72
2022/03/16 07:42:30;;;;;;;63.95;34.03;;;5.90;99.90;;;;;;4861522;29;20045;-72
2022/03/16 07:44:56;;;;;;;62.08;36.05;;;;;;;;;;4846188;29;20599;-72
2022/03/16 07:47:24;;;;;;;60.22;35.20;;;;;;;;;;4846187;29;20041;-72
2022/03/16 07:49:51;;;;;;;54.47;33.40;;;;;;;;;;4845897;29;20181;-72
2022/03/16 07:52:17;;;;;;;61.28;35.40;;;;;;;;;;4861656;29;20474;-72
2022/03/16 07:54:43;;;;;;;64.70;37.22;;;;;;;;;;4845298;29;20049;-72
2022/03/16 07:57:09;;;;;;;61.22;35.88;;;;;;;;;;4861563;29;20045;-72
2022/03/16 07:59:36;;;;;;;57.90;37.60;;;;;;;;;;4860905;29;20060;-71
2022/03/16 08:02:02;;;;;;;66.25;37.55;;;;;;;;;;4859147;29;20045;-71
2022/03/16 08:04:28;;;;;;;66.57;39.15;;;;;;;;;;4850170;29;20479;-72
2022/03/16 08:06:54;;;;;;;67.03;37.45;;;;;;;;;;4861447;29;20486;-72
2022/03/16 08:09:20;;;;;;;67.32;38.53;;;;;;;;;;4859901;29;20498;-72
2022/03/16 08:11:46;;;;;;;68.07;39.17;;;;;;;;;;4846287;29;20045;-73
2022/03/16 08:14:12;;;;;;;67.45;39.65;;;;;;;;;;4861371;29;20053;-72
2022/03/16 08:16:39;;;;;;;66.82;40.15;;;;;;;;;;4844642;29;20049;-72
2022/03/16 08:19:05;;;;;;;75.63;42.88;;;;;;;;;;4861591;29;20049;-72
2022/03/16 08:21:31;;;;;;;64.88;40.80;;;;;;;;;;4836844;29;20112;-73
2022/03/16 08:23:57;;;;;;;70.03;42.67;;;;;;;;;;4862963;29;20566;-78
2022/03/16 08:26:24;;;;;;;75.50;43.90;;;;;;;;;;4865215;29;20045;-73
2022/03/16 08:28:51;;;;;;;63.42;40.88;;;;;;;;;;4865366;29;20045;-72
2022/03/16 08:31:17;;;;;;;60.53;37.80;;;;;;;;;;4861396;29;20048;-73
2022/03/16 08:33:43;;;;;;;64.15;37.70;;;7.10;99.90;;;;;;4864794;29;20104;-73
2022/03/16 08:36:11;;;;;;;62.42;36.40;;;;;;;;;;4863220;29;20418;-72
2022/03/16 08:38:38;;;;;;;60.15;35.65;;;7.60;99.90;;;;;;4856048;29;20051;-73
2022/03/16 08:41:08;;;;;;;57.25;34.55;;;7.80;99.90;;;;;;4851552;29;20048;-73
2022/03/16 08:43:34;;;;;;;47.88;29.85;;;7.60;99.90;;;;;;4864454;29;20033;-73
2022/03/16 08:46:01;;;;;;;49.13;29.95;;;;;;;;;;4864081;29;20088;-72
2022/03/16 08:48:27;;;;;;;48.80;29.55;;;;;;;;;;4860347;29;20033;-72
2022/03/16 08:50:53;;;;;;;45.67;27.25;;;;;;;;;;4864889;29;20427;-73
2022/03/16 08:53:20;;;;;;;42.97;25.52;;;;;;;;;;4862948;29;20049;-73
2022/03/16 08:55:46;;;;;;;39.92;24.67;;;;;;;;;;4848509;29;20041;-73
2022/03/16 08:58:14;;;;;;;39.90;23.70;;;;;;;;;;4843020;29;20530;-73
2022/03/16 09:00:41;;;;;;;39.70;24.58;;;7.70;99.90;;;;;;4846097;29;20042;-72
2022/03/16 09:03:08;;;;;;;37.88;22.67;;;7.70;99.90;;;;;;4846001;29;20121;-72
2022/03/16 09:05:34;;;;;;;34.38;21.30;;;;;;;;;;4845404;29;20049;-72
2022/03/16 09:08:01;;;;;;;38.78;21.27;;;;;;;;;;4834338;29;20045;-73
2022/03/16 09:10:27;;;;;;;35.47;20.27;;;8.40;99.90;;;;;;4845897;29;20508;-73
2022/03/16 09:12:53;;;;;;;30.25;19.15;;;;;;;;;;4845840;29;20066;-73
2022/03/16 09:15:19;;;;;;;36.35;19.98;;;;;;;;;;4845642;29;20037;-73
2022/03/16 09:17:45;;;;;;;36.30;22.35;;;;;;;;;;4845846;29;20045;-73
2022/03/16 09:20:11;;;;;;;35.67;19.67;;;;;;;;;;4845472;29;20046;-73
2022/03/16 09:22:37;;;;;;;35.75;19.45;;;;;;;;;;4830328;29;20098;-73
2022/03/16 09:25:04;;;;;;;31.98;19.95;;;;;;;;;;4845136;29;20833;-72
2022/03/16 09:27:30;;;;;;;30.52;19.92;;;;;;;;;;4843232;29;20394;-73
2022/03/16 09:29:56;;;;;;;36.88;20.58;;;;;;;;;;4845037;29;20073;-73
2022/03/16 09:32:23;;;;;;;39.53;20.55;;;9.30;99.90;;;;;;4845434;29;20097;-73
2022/03/16 09:34:50;;;;;;;37.78;20.55;;;;;;;;;;4840787;29;20053;-72
2022/03/16 09:37:16;;;;;;;35.25;20.70;;;;;;;;;;4829805;29;20443;-73
2022/03/16 09:39:42;;;;;;;39.38;21.25;;;;;;;;;;4844913;29;20041;-73
2022/03/16 09:42:09;;;;;;;31.08;18.30;;;9.40;99.90;;;;;;4831917;29;20054;-70
2022/03/16 09:44:36;;;;;;;35.72;18.50;;;;;;;;;;4829272;29;20049;-75
2022/03/16 09:47:03;;;;;;;31.13;19.30;;;9.80;99.90;;;;;;4858335;29;20053;-71
2022/03/16 09:49:30;;;;;;;37.95;20.77;;;;;;;;;;4845941;29;20611;-73
2022/03/16 09:51:56;;;;;;;33.65;18.48;;;;;;;;;;4846249;29;20495;-73
2022/03/16 09:54:23;;;;;;;32.00;18.40;;;10.00;99.90;;;;;;4846258;29;20109;-73
2022/03/16 09:56:49;;;;;;;30.63;18.92;;;;;;;;;;4846017;29;20143;-73
2022/03/16 09:59:15;;;;;;;31.27;19.48;;;;;;;;;;4830862;29;20054;-73
2022/03/16 10:01:44;;;;;;;30.67;18.13;;;;;;;;;;4846048;29;20041;-73
2022/03/16 10:04:10;;;;;;;32.22;18.73;;;;;;;;;;4846195;29;20097;-72
2022/03/16 10:06:43;;;;;;;29.98;17.27;;;;;;;;;;4846376;29;20133;-73
2022/03/16 10:15:01;;;;;;;31.58;16.23;;;11.40;99.90;;;;;;4845886;29;20056;-73
2022/03/16 10:17:45;;;;;;;29.45;16.92;;;;;;;;;;4845891;29;20045;-73
2022/03/16 10:20:29;;;;;;;33.63;16.67;;;10.70;99.90;;;;;;4845762;29;20082;-73
2022/03/16 10:23:14;;;;;;;25.80;14.95;;;11.00;99.90;;;;;;4845797;29;20477;-73
2022/03/16 10:25:54;;;;;;;34.65;16.70;;;;;;;;;;4845724;29;20483;-74
2022/03/16 10:28:20;;;;;;;34.08;16.55;;;10.90;99.90;;;;;;4845882;29;20105;-73
2022/03/16 10:30:56;;;;;;;27.83;15.85;;;11.00;99.90;;;;;;4845760;29;20098;-73
2022/03/16 10:33:29;;;;;;;26.48;15.30;;;11.00;99.90;;;;;;4845808;29;20045;-73
2022/03/16 10:35:56;;;;;;;26.55;15.65;;;;;;;;;;4845605;29;20113;-77
2022/03/16 10:38:22;;;;;;;27.30;15.65;;;;;;;;;;4844903;29;20053;-72
2022/03/16 10:40:49;;;;;;;22.98;14.48;;;11.70;99.90;;;;;;4848678;29;20052;-73
2022/03/16 10:49:00;;;;;;;25.70;13.38;;;11.40;99.90;;;;;;4863913;29;20095;-73
2022/03/16 10:51:26;;;;;;;24.15;13.77;;;;;;;;;;4880597;29;20454;-73
2022/03/16 10:53:53;;;;;;;24.75;14.57;;;;;;;;;;4864084;29;20393;-73
2022/03/16 10:56:20;;;;;;;22.33;12.60;;;11.00;99.90;;;;;;4863713;29;20055;-73
2022/03/16 10:58:46;;;;;;;21.38;12.85;;;;;;;;;;4865168;29;20569;-73
2022/03/16 11:01:13;;;;;;;22.80;12.93;;;;;;;;;;4877312;29;20049;-73
2022/03/16 11:03:41;;;;;;;22.73;13.25;;;;;;;;;;4863523;29;20048;-73
2022/03/16 11:06:08;;;;;;;25.38;13.57;;;12.40;99.90;;;;;;4863666;29;20505;-73
2022/03/16 11:08:36;;;;;;;26.38;13.45;;;;;;;;;;4848330;29;20041;-73
2022/03/16 11:13:28;;;;;;;25.27;12.50;;;;;;;;;;4863532;29;20049;-73
2022/03/16 11:13:52;;;;;;;24.15;13.43;;;12.00;99.10;;;;;;4863194;29;20053;-73
2022/03/16 11:16:21;;;;;;;24.02;12.90;;;12.20;99.40;;;;;;4863760;29;20518;-73
2022/03/16 11:18:48;;;;;;;25.88;13.27;;;12.30;99.30;;;;;;4862515;29;20049;-73
2022/03/16 11:21:24;;;;;;;23.48;13.43;;;12.60;98.90;;;;;;4844786;29;20045;-73
2022/03/16 11:27:14;;;;;;;23.70;13.10;;;12.80;97.90;;;;;;4845042;29;20402;-73
2022/03/16 11:30:00;;;;;;;22.75;11.88;;;12.90;98.50;;;;;;4829951;29;20069;-73
2022/03/16 11:32:40;;;;;;;20.58;11.90;;;13.10;98.00;;;;;;4844713;29;20109;-73
2022/03/16 11:35:14;;;;;;;20.40;12.00;;;13.70;99.90;;;;;;4844573;29;20113;-73
2022/03/16 11:37:40;;;;;;;20.65;10.90;;;;;;;;;;4844752;29;20106;-73
2022/03/16 11:40:12;;;;;;;20.88;11.43;;;;;;;;;;4847953;29;20045;-73
2022/03/16 11:42:42;;;;;;;19.70;10.57;;;13.40;97.00;;;;;;4863040;29;20163;-74
2022/03/16 11:45:48;;;;;;;18.08;10.15;;;13.20;99.80;;;;;;4863026;29;20045;-73
2022/03/16 11:48:28;;;;;;;18.75;9.30;;;;;;;;;;4862537;29;20059;-75
2022/03/16 11:51:09;;;;;;;18.80;10.85;;;14.10;95.90;;;;;;4862308;29;20056;-74
2022/03/16 11:53:48;;;;;;;18.70;10.60;;;;;;;;;;4861943;29;20051;-73
2022/03/16 11:56:20;;;;;;;19.15;11.07;;;;;;;;;;4862800;29;20123;-73
2022/03/16 11:58:47;;;;;;;17.60;10.60;;;13.70;95.00;;;;;;4847131;29;20116;-73
2022/03/16 12:01:37;;;;;;;21.05;10.18;;;13.70;94.40;;;;;;4877599;29;20045;-73
2022/03/16 12:04:15;;;;;;;18.80;11.40;;;13.90;98.50;;;;;;4862994;29;20044;-73
2022/03/16 12:07:05;;;;;;;20.00;11.48;;;14.20;98.30;;;;;;4862833;29;20180;-73
2022/03/16 12:09:34;;;;;;;20.35;10.93;;;14.50;98.30;;;;;;4862692;29;20159;-73
2022/03/16 12:15:19;;;;;;;19.20;11.57;;;;;;;;;;4862763;29;20049;-73
2022/03/16 12:17:51;;;;;;;;;;;14.30;94.80;;;;;;4876983;29;20108;-73
2022/03/16 12:20:24;;;;;;;20.77;11.32;;;14.40;94.60;;;;;;4862545;29;19923;-73
2022/03/16 12:22:56;;;;;;;21.42;12.18;;;14.60;94.50;;;;;;4862614;29;20059;-73
2022/03/16 12:25:26;;;;;;;28.98;11.68;;;14.50;97.70;;;;;;4862502;29;20049;-73
2022/03/16 12:30:54;;;;;;;19.17;10.43;;;15.40;97.00;;;;;;4862557;29;20049;-73
2022/03/16 12:33:22;;;;;;;19.23;9.60;;;15.20;93.20;;;;;;4846979;29;20503;-73
2022/03/16 12:36:25;;;;;;;18.33;9.82;;;15.10;93.40;;;;;;4862513;29;20097;-73
2022/03/16 12:38:55;;;;;;;17.02;9.90;;;15.20;93.20;;;;;;4862668;29;20498;-73
2022/03/16 12:44:11;;;;;;;18.05;9.85;;;15.50;92.90;;;;;;4862348;29;20119;-74
2022/03/16 12:47:00;;;;;;;17.85;9.82;;;15.60;92.80;;;;;;4862474;29;20048;-74
2022/03/16 12:49:26;;;;;;;17.15;10.43;;;15.90;95.40;;;;;;4862612;29;20053;-73
2022/03/16 12:51:54;;;;;;;17.75;10.60;;;15.90;92.20;;;;;;4862411;29;20052;-73
2022/03/16 12:54:30;;;;;;;18.98;10.15;;;15.60;95.00;;;;;;4862694;29;20405;-73
2022/03/16 12:57:09;;;;;;;19.30;10.32;;;16.20;95.00;;;;;;4862337;29;20060;-74
2022/03/16 12:59:53;;;;;;;18.45;10.10;;;16.60;94.60;;;;;;4861508;29;20061;-74
2022/03/16 13:02:22;;;;;;;18.52;10.90;;;16.00;91.50;;;;;;4847084;29;20104;-74
2022/03/16 13:04:54;;;;;;;20.75;10.77;;;16.00;91.20;;;;;;4862572;29;20048;-73
2022/03/16 13:07:22;;;;;;;18.63;10.93;;;16.20;91.30;;;;;;4862343;29;20048;-74
2022/03/16 13:09:48;;;;;;;24.20;12.52;;;;;;;;;;4862435;29;20136;-74
2022/03/16 13:12:15;;;;;;;20.63;12.20;;;;;;;;;;4865991;29;20394;-74
2022/03/16 13:14:47;;;;;;;22.15;11.35;;;15.40;94.00;;;;;;4865575;29;20049;-74
2022/03/16 13:17:17;;;;;;;19.25;10.88;;;16.00;90.40;;;;;;4865845;29;20045;-74
2022/03/16 13:19:48;;;;;;;18.45;11.35;;;16.70;94.20;;;;;;4849980;29;20052;-74
2022/03/16 13:22:18;;;;;;;22.85;12.43;;;16.80;94.30;;;;;;4865494;29;20045;-74
2022/03/16 13:24:58;;;;;;;24.48;13.05;;;16.10;90.10;;;;;;4865020;29;20041;-74
2022/03/16 13:27:35;;;;;;;20.17;12.13;;;16.40;94.30;;;;;;4865412;29;20041;-74
2022/03/16 13:30:22;;;;;;;24.23;12.73;;;15.80;91.50;;;;;;4865147;29;20044;-73
2022/03/16 13:32:52;;;;;;;21.85;13.48;;;15.50;91.20;;;;;;4849968;29;20398;-73
2022/03/16 13:35:22;;;;;;;25.77;13.75;;;15.70;91.00;;;;;;4864351;29;20387;-73
2022/03/16 13:37:58;;;;;;;25.35;13.95;;;16.70;94.40;;;;;;4865228;29;20136;-73
2022/03/16 13:40:29;;;;;;;26.17;13.98;;;15.00;94.10;;;;;;4849523;29;20037;-73
2022/03/16 13:43:07;;;;;;;23.63;13.65;;;16.50;94.30;;;;;;4849748;29;20041;-73
2022/03/16 13:45:42;;;;;;;27.38;13.48;;;15.50;94.10;;;;;;4865206;29;20045;-73
2022/03/16 13:48:13;;;;;;;25.48;13.80;;;15.30;91.10;;;;;;4865257;29;20045;-73
2022/03/16 13:50:44;;;;;;;25.65;13.90;;;;;;;;;;4865162;29;20044;-73
2022/03/16 13:53:17;;;;;;;30.27;15.57;;;15.20;91.40;;;;;;4849744;29;20421;-73
2022/03/16 13:55:47;;;;;;;29.77;15.57;;;;;;;;;;4865039;29;20041;-73
2022/03/16 13:58:14;;;;;;;30.48;15.60;;;15.90;95.00;;;;;;4866945;29;20115;-73
2022/03/16 14:00:48;;;;;;;26.48;15.32;;;15.30;91.50;;;;;;4883471;29;20463;-73
2022/03/16 14:03:19;;;;;;;28.95;14.63;;;15.30;90.90;;;;;;4867798;29;20093;-74
2022/03/16 14:05:45;;;;;;;29.55;14.57;;;;;;;;;;4883506;29;20079;-74
2022/03/16 14:08:11;;;;;;;30.80;16.02;;;14.40;94.40;;;;;;4867623;29;20127;-74
2022/03/16 14:10:41;;;;;;;31.65;15.10;;;15.00;94.50;;;;;;4881686;29;20075;-74